createdAt,value
2019-05-23T00:00:46.428Z,18.75
2019-05-23T00:03:58.597Z,18.85
2019-05-23T00:07:02.271Z,22.15
2019-05-23T00:10:07.344Z,20.08
2019-05-23T00:13:13.229Z,19.50
2019-05-23T00:16:14.707Z,17.50
2019-05-23T00:19:16.567Z,19.02
2019-05-23T00:22:19.111Z,20.25
2019-05-23T00:25:22.292Z,18.77
2019-05-23T00:28:24.350Z,19.48
2019-05-23T00:31:27.513Z,19.27
2019-05-23T00:34:30.773Z,20.10
2019-05-23T00:37:33.931Z,18.65
2019-05-23T00:40:35.671Z,19.17
2019-05-23T00:43:37.233Z,19.27
2019-05-23T00:46:38.878Z,20.08
2019-05-23T00:49:41.093Z,22.55
2019-05-23T00:52:42.755Z,19.00
2019-05-23T00:55:45.902Z,20.12
2019-05-23T00:58:48.460Z,17.77
2019-05-23T01:01:49.814Z,21.25
2019-05-23T01:04:51.769Z,18.35
2019-05-23T01:07:53.310Z,18.25
2019-05-23T01:10:56.233Z,18.85
2019-05-23T01:13:58.769Z,18.02
2019-05-23T01:17:00.710Z,18.27
2019-05-23T01:20:06.556Z,19.70
2019-05-23T01:23:09.523Z,19.12
2019-05-23T01:26:13.065Z,21.23
2019-05-23T01:29:16.103Z,20.68
2019-05-23T01:32:22.184Z,18.67
2019-05-23T01:35:23.849Z,23.10
2019-05-23T01:38:25.070Z,22.40
2019-05-23T01:41:26.737Z,22.15
2019-05-23T01:44:28.593Z,23.62
2019-05-23T01:47:30.286Z,24.65
2019-05-23T01:50:32.523Z,24.95
2019-05-23T01:53:34.218Z,21.85
2019-05-23T01:56:35.563Z,23.22
2019-05-23T01:59:37.695Z,25.40
2019-05-23T02:02:39.435Z,25.57
2019-05-23T02:05:41.777Z,35.90
2019-05-23T02:08:43.794Z,21.93
2019-05-23T02:11:45.414Z,22.22
2019-05-23T02:14:47.949Z,24.87
2019-05-23T02:17:49.303Z,23.40
2019-05-23T02:20:50.879Z,26.85
2019-05-23T02:23:53.786Z,30.15
2019-05-23T02:26:55.538Z,30.43
2019-05-23T02:29:57.749Z,30.20
2019-05-23T02:32:59.516Z,23.45
2019-05-23T02:36:00.861Z,21.07
2019-05-23T02:39:15.967Z,19.65
2019-05-23T02:42:28.314Z,26.95
2019-05-23T02:45:46.767Z,24.95
2019-05-23T02:48:50.282Z,25.37
2019-05-23T02:51:53.038Z,24.07
2019-05-23T02:54:54.452Z,24.85
2019-05-23T02:57:58.753Z,25.52
2019-05-23T03:01:21.898Z,25.40
2019-05-23T03:04:25.261Z,24.75
2019-05-23T03:07:31.268Z,22.73
2019-05-23T03:10:52.372Z,22.02
2019-05-23T03:13:55.219Z,22.70
2019-05-23T03:16:58.381Z,23.18
2019-05-23T03:20:00.867Z,24.10
2019-05-23T03:23:12.057Z,22.55
2019-05-23T03:26:39.250Z,26.30
2019-05-23T03:29:40.487Z,23.75
2019-05-23T03:32:49.687Z,22.40
2019-05-23T03:35:55.577Z,22.32
2019-05-23T03:38:57.997Z,22.30
2019-05-23T03:42:00.230Z,21.17
2019-05-23T03:45:03.578Z,20.82
2019-05-23T03:48:06.612Z,20.72
2019-05-23T03:51:09.686Z,21.40
2019-05-23T03:54:11.023Z,20.77
2019-05-23T03:57:12.638Z,20.40
2019-05-23T04:00:15.786Z,20.72
2019-05-23T04:03:17.226Z,21.55
2019-05-23T04:06:19.689Z,20.62
2019-05-23T04:09:21.614Z,21.97
2019-05-23T04:12:23.272Z,21.30
2019-05-23T04:15:25.199Z,20.95
2019-05-23T04:18:26.660Z,19.52
2019-05-23T04:21:28.178Z,21.50
2019-05-23T04:24:30.035Z,19.27
2019-05-23T04:27:32.175Z,19.95
2019-05-23T04:30:33.817Z,20.50
2019-05-23T04:33:35.483Z,20.57
2019-05-23T04:36:36.725Z,19.17
2019-05-23T04:39:37.969Z,19.73
2019-05-23T04:42:39.460Z,19.20
2019-05-23T04:45:41.497Z,19.73
2019-05-23T04:48:42.958Z,24.75
2019-05-23T04:51:44.263Z,16.75
2019-05-23T04:54:45.612Z,14.68
2019-05-23T04:57:47.416Z,14.80
2019-05-23T05:00:48.662Z,13.93
2019-05-23T05:03:50.795Z,13.45
2019-05-23T05:06:53.367Z,12.47
2019-05-23T05:09:54.598Z,13.40
2019-05-23T05:12:55.998Z,13.10
2019-05-23T05:15:57.429Z,13.03
2019-05-23T05:18:58.800Z,12.63
2019-05-23T05:22:00.750Z,10.32
2019-05-23T05:25:03.441Z,11.35
2019-05-23T05:28:05.978Z,12.00
2019-05-23T05:31:08.134Z,11.40
2019-05-23T05:34:09.473Z,11.78
2019-05-23T05:37:10.947Z,12.25
2019-05-23T05:40:13.057Z,12.23
2019-05-23T05:43:15.249Z,13.10
2019-05-23T05:46:16.494Z,14.28
2019-05-23T05:49:17.986Z,14.07
2019-05-23T05:52:19.846Z,13.85
2019-05-23T05:55:21.223Z,13.65
2019-05-23T05:58:22.461Z,13.18
2019-05-23T06:01:33.268Z,13.58
2019-05-23T06:04:28.822Z,12.88
2019-05-23T06:07:32.157Z,11.30
2019-05-23T06:10:33.416Z,10.28
2019-05-23T06:13:34.854Z,9.53
2019-05-23T06:16:36.729Z,8.63
2019-05-23T06:19:39.112Z,12.10
2019-05-23T06:22:41.526Z,6.47
2019-05-23T06:25:42.858Z,6.20
2019-05-23T06:28:44.289Z,5.53
2019-05-23T06:31:45.550Z,4.67
2019-05-23T06:34:47.506Z,4.28
2019-05-23T06:37:49.471Z,3.60
2019-05-23T06:40:51.417Z,3.80
2019-05-23T06:43:52.678Z,3.62
2019-05-23T06:46:54.206Z,3.40
2019-05-23T06:49:55.451Z,3.40
2019-05-23T06:52:57.539Z,3.37
2019-05-23T06:56:01.185Z,3.22
2019-05-23T06:59:02.637Z,3.35
2019-05-23T07:02:03.866Z,3.50
2019-05-23T07:05:05.303Z,3.20
2019-05-23T07:08:07.251Z,2.92
2019-05-23T07:11:08.551Z,3.25
2019-05-23T07:14:11.034Z,2.90
2019-05-23T07:17:12.679Z,3.17
2019-05-23T07:20:14.916Z,2.95
2019-05-23T07:23:16.701Z,3.05
2019-05-23T07:26:17.965Z,2.77
2019-05-23T07:29:19.498Z,2.70
2019-05-23T07:32:20.897Z,2.62
2019-05-23T07:35:22.774Z,2.75
2019-05-23T07:38:24.016Z,2.80
2019-05-23T07:41:25.440Z,2.40
2019-05-23T07:44:27.708Z,2.00
2019-05-23T07:47:29.913Z,1.98
2019-05-23T07:50:31.643Z,2.12
2019-05-23T07:53:50.319Z,1.95
2019-05-23T07:56:52.286Z,1.67
2019-05-23T07:59:54.737Z,1.57
2019-05-23T08:02:58.297Z,1.30
2019-05-23T08:06:00.242Z,1.50
2019-05-23T08:09:01.593Z,1.45
2019-05-23T08:12:03.193Z,1.35
2019-05-23T08:15:05.084Z,1.60
2019-05-23T08:18:08.489Z,1.70
2019-05-23T08:21:09.652Z,1.60
2019-05-23T08:24:12.243Z,1.50
2019-05-23T08:27:13.645Z,1.40
2019-05-23T08:30:15.448Z,1.72
2019-05-23T08:33:16.992Z,1.45
2019-05-23T08:36:19.163Z,1.50
2019-05-23T08:39:22.301Z,1.65
2019-05-23T08:42:24.561Z,1.90
2019-05-23T08:45:25.995Z,1.52
2019-05-23T08:48:27.720Z,1.42
2019-05-23T08:51:29.213Z,1.60
2019-05-23T08:54:31.141Z,1.60
2019-05-23T08:57:32.501Z,1.50
2019-05-23T09:00:35.861Z,1.80
2019-05-23T09:03:38.025Z,1.60
2019-05-23T09:06:39.830Z,1.40
2019-05-23T09:09:41.426Z,1.50
2019-05-23T09:12:43.041Z,1.70
2019-05-23T09:15:44.982Z,1.35
2019-05-23T09:18:46.369Z,1.65
2019-05-23T09:21:47.829Z,1.52
2019-05-23T09:24:49.090Z,1.75
2019-05-23T09:27:51.248Z,1.67
2019-05-23T09:30:52.629Z,1.52
2019-05-23T09:33:53.870Z,1.47
2019-05-23T09:36:55.128Z,1.72
2019-05-23T09:39:57.165Z,1.40
2019-05-23T09:42:58.638Z,1.70
2019-05-23T09:46:00.210Z,1.50
2019-05-23T09:49:01.689Z,1.40
2019-05-23T09:55:31.620Z,2.02
2019-05-23T09:58:32.857Z,2.12
2019-05-23T10:01:34.101Z,2.17
2019-05-23T10:04:36.042Z,2.00
2019-05-23T10:07:37.287Z,2.35
2019-05-23T10:10:38.603Z,2.25
2019-05-23T10:13:39.876Z,3.60
2019-05-23T10:16:41.633Z,3.40
2019-05-23T10:19:42.870Z,2.65
2019-05-23T10:22:44.333Z,2.50
2019-05-23T10:25:45.632Z,2.45
2019-05-23T10:28:47.043Z,1.80
2019-05-23T10:31:48.614Z,1.98
2019-05-23T10:34:49.986Z,2.10
2019-05-23T10:37:51.283Z,1.80
2019-05-23T10:40:52.730Z,2.10
2019-05-23T10:43:54.532Z,1.80
2019-05-23T10:46:56.055Z,1.75
2019-05-23T10:49:57.780Z,2.00
2019-05-23T10:52:59.239Z,2.00
2019-05-23T10:56:00.504Z,1.87
2019-05-23T10:59:02.378Z,2.00
2019-05-23T11:02:05.540Z,1.80
2019-05-23T11:05:12.873Z,1.67
2019-05-23T11:08:10.027Z,1.65
2019-05-23T11:11:14.617Z,1.80
2019-05-23T11:14:14.581Z,1.77
2019-05-23T11:17:15.836Z,1.75
2019-05-23T11:20:17.678Z,1.52
2019-05-23T11:23:20.851Z,1.70
2019-05-23T11:26:22.107Z,1.72
2019-05-23T11:29:26.964Z,1.37
2019-05-23T11:32:27.394Z,1.80
2019-05-23T11:35:28.832Z,1.72
2019-05-23T11:38:30.990Z,2.33
2019-05-23T11:41:32.275Z,2.40
2019-05-23T11:44:33.520Z,1.70
2019-05-23T11:47:35.475Z,1.77
2019-05-23T11:50:37.175Z,1.85
2019-05-23T11:53:39.410Z,1.70
2019-05-23T11:56:41.119Z,2.00
2019-05-23T11:59:42.378Z,1.70
2019-05-23T12:02:46.789Z,1.82
2019-05-23T12:05:49.822Z,1.70
2019-05-23T12:08:51.211Z,1.50
2019-05-23T12:11:52.663Z,2.55
2019-05-23T12:14:54.623Z,3.05
2019-05-23T12:17:56.067Z,3.20
2019-05-23T12:20:59.623Z,2.35
2019-05-23T12:24:00.577Z,2.10
2019-05-23T12:27:01.834Z,2.12
2019-05-23T12:30:06.091Z,2.33
2019-05-23T12:33:08.061Z,1.90
2019-05-23T12:36:11.378Z,1.92
2019-05-23T12:39:13.005Z,1.70
2019-05-23T12:42:14.394Z,1.42
2019-05-23T12:45:16.155Z,1.07
2019-05-23T12:48:28.403Z,0.90
2019-05-23T12:51:37.627Z,1.10
2019-05-23T12:54:39.129Z,1.00
2019-05-23T12:57:40.370Z,1.00
2019-05-23T13:00:43.759Z,1.10
2019-05-23T13:03:46.317Z,1.15
2019-05-23T13:06:48.041Z,1.20
2019-05-23T13:09:49.271Z,1.10
2019-05-23T13:12:50.545Z,1.10
2019-05-23T13:15:52.118Z,1.20
2019-05-23T13:18:53.366Z,1.40
2019-05-23T13:21:54.837Z,1.27
2019-05-23T13:24:56.744Z,1.22
2019-05-23T13:27:59.712Z,1.10
2019-05-23T13:31:01.481Z,1.00
2019-05-23T13:34:02.779Z,1.30
2019-05-23T13:37:06.050Z,1.20
2019-05-23T13:40:07.948Z,1.47
2019-05-23T13:43:09.427Z,0.85
2019-05-23T13:46:10.897Z,1.02
2019-05-23T13:49:13.069Z,1.00
2019-05-23T13:52:14.615Z,0.90
2019-05-23T13:55:18.518Z,0.90
2019-05-23T13:58:20.234Z,1.00
2019-05-23T14:01:22.226Z,1.00
2019-05-23T14:04:24.287Z,0.90
2019-05-23T14:07:26.032Z,1.15
2019-05-23T14:10:28.403Z,1.00
2019-05-23T14:13:30.642Z,1.00
2019-05-23T14:16:34.382Z,1.00
2019-05-23T14:19:35.679Z,0.95
2019-05-23T14:22:38.956Z,0.90
2019-05-23T14:25:42.288Z,1.05
2019-05-23T14:28:43.763Z,1.15
2019-05-23T14:31:48.111Z,0.90
2019-05-23T14:34:52.043Z,1.10
2019-05-23T14:37:55.493Z,1.20
2019-05-23T14:40:58.027Z,1.20
2019-05-23T14:43:59.657Z,1.00
2019-05-23T14:47:17.707Z,1.00
2019-05-23T14:50:25.016Z,1.10
2019-05-23T14:53:34.282Z,1.30
2019-05-23T14:56:40.360Z,1.35
2019-05-23T14:59:44.555Z,1.20
2019-05-23T15:02:48.245Z,1.82
2019-05-23T15:05:52.129Z,1.40
2019-05-23T15:08:54.001Z,1.20
2019-05-23T15:11:57.888Z,1.30
2019-05-23T15:15:02.712Z,1.40
2019-05-23T15:18:06.771Z,1.45
2019-05-23T15:21:09.872Z,1.55
2019-05-23T15:24:13.187Z,2.10
2019-05-23T15:27:16.750Z,2.45
2019-05-23T15:33:25.510Z,3.02
2019-05-23T15:36:28.705Z,3.47
2019-05-23T15:39:30.212Z,3.40
2019-05-23T15:42:32.066Z,2.87
2019-05-23T15:45:34.928Z,2.80
2019-05-23T15:48:36.629Z,2.47
2019-05-23T15:51:54.001Z,3.60
2019-05-23T15:55:12.455Z,4.22
2019-05-23T15:58:22.356Z,4.92
2019-05-23T16:01:41.041Z,5.95
2019-05-23T16:04:43.745Z,7.83
2019-05-23T16:07:45.183Z,10.68
2019-05-23T16:10:49.040Z,11.97
2019-05-23T16:13:51.563Z,10.50
2019-05-23T16:16:56.747Z,8.63
2019-05-23T16:19:58.165Z,6.65
2019-05-23T16:22:59.843Z,4.55
2019-05-23T16:26:02.121Z,3.80
2019-05-23T16:29:04.798Z,3.37
2019-05-23T16:32:06.770Z,3.65
2019-05-23T16:35:08.467Z,3.77
2019-05-23T16:38:13.810Z,3.75
2019-05-23T16:41:15.688Z,4.10
2019-05-23T16:44:17.104Z,4.40
2019-05-23T16:47:18.798Z,3.55
2019-05-23T16:50:20.457Z,3.80
2019-05-23T16:53:25.720Z,2.98
2019-05-23T16:56:29.728Z,3.00
2019-05-23T16:59:52.085Z,3.10
2019-05-23T17:02:55.623Z,3.15
2019-05-23T17:06:14.150Z,3.33
2019-05-23T17:09:26.128Z,3.00
2019-05-23T17:12:29.469Z,2.70
2019-05-23T17:15:41.734Z,2.67
2019-05-23T17:18:50.806Z,2.60
2019-05-23T17:22:12.288Z,2.40
2019-05-23T17:25:34.462Z,3.05
2019-05-23T17:28:40.274Z,2.90
2019-05-23T17:31:51.702Z,2.92
2019-05-23T17:34:55.327Z,3.30
2019-05-23T17:37:59.066Z,3.10
2019-05-23T17:41:00.994Z,3.40
2019-05-23T17:44:02.888Z,3.72
2019-05-23T17:47:05.008Z,3.75
2019-05-23T17:50:06.817Z,4.53
2019-05-23T17:53:08.806Z,3.87
2019-05-23T17:56:14.956Z,4.00
2019-05-23T17:59:19.755Z,4.30
2019-05-23T18:02:23.233Z,4.58
2019-05-23T18:05:25.407Z,5.00
2019-05-23T18:08:31.063Z,4.97
2019-05-23T18:11:34.177Z,5.90
2019-05-23T18:14:37.243Z,6.05
2019-05-23T18:17:39.475Z,6.72
2019-05-23T18:20:42.683Z,7.05
2019-05-23T18:23:50.128Z,7.55
2019-05-23T18:26:52.661Z,8.40
2019-05-23T18:29:58.684Z,10.28
2019-05-23T18:33:03.949Z,11.40
2019-05-23T18:36:09.341Z,11.78
2019-05-23T18:39:15.759Z,16.50
2019-05-23T18:42:20.482Z,18.05
2019-05-23T18:45:23.207Z,17.02
2019-05-23T18:48:25.849Z,16.50
2019-05-23T18:51:29.313Z,17.17
2019-05-23T18:54:32.586Z,17.57
2019-05-23T18:57:38.162Z,17.65
2019-05-23T19:00:50.232Z,18.57
2019-05-23T19:03:51.956Z,19.98
2019-05-23T19:06:56.604Z,19.42
2019-05-23T19:09:58.211Z,20.00
2019-05-23T19:13:01.140Z,20.80
2019-05-23T19:16:02.555Z,20.10
2019-05-23T19:19:04.919Z,19.32
2019-05-23T19:22:10.548Z,18.10
2019-05-23T19:25:12.398Z,17.60
2019-05-23T19:28:13.681Z,17.37
2019-05-23T19:31:17.119Z,16.93
2019-05-23T19:34:18.839Z,15.38
2019-05-23T19:37:20.833Z,15.38
2019-05-23T19:40:24.459Z,19.05
2019-05-23T19:43:29.320Z,20.77
2019-05-23T19:46:34.774Z,20.72
2019-05-23T19:49:36.409Z,21.12
2019-05-23T19:52:44.476Z,22.80
2019-05-23T19:55:48.360Z,23.85
2019-05-23T19:58:56.696Z,24.18
2019-05-23T20:02:16.291Z,25.12
2019-05-23T20:05:22.611Z,26.77
2019-05-23T20:08:27.411Z,26.40
2019-05-23T20:11:29.930Z,27.75
2019-05-23T20:14:32.855Z,26.82
2019-05-23T20:17:34.107Z,27.50
2019-05-23T20:20:37.176Z,27.67
2019-05-23T20:23:39.256Z,28.52
2019-05-23T20:26:42.010Z,29.10
2019-05-23T20:29:43.267Z,27.62
2019-05-23T20:32:48.768Z,31.55
2019-05-23T20:35:53.404Z,32.17
2019-05-23T20:38:57.481Z,31.82
2019-05-23T20:42:10.940Z,34.50
2019-05-23T20:45:05.729Z,36.68
2019-05-23T20:48:08.864Z,35.92
2019-05-23T20:51:12.466Z,38.30
2019-05-23T20:54:15.047Z,37.13
2019-05-23T20:57:18.659Z,36.33
2019-05-23T21:00:37.640Z,37.93
2019-05-23T21:03:41.241Z,35.60
2019-05-23T21:06:44.819Z,35.20
2019-05-23T21:09:48.846Z,36.50
2019-05-23T21:12:52.895Z,38.55
2019-05-23T21:15:56.961Z,33.50
2019-05-23T21:19:01.731Z,33.18
2019-05-23T21:22:03.987Z,42.83
2019-05-23T21:25:05.701Z,39.18
2019-05-23T21:28:08.405Z,32.13
2019-05-23T21:31:12.741Z,47.48
2019-05-23T21:34:16.197Z,45.52
2019-05-23T21:37:20.528Z,51.65
2019-05-23T21:40:35.966Z,50.40
2019-05-23T21:43:37.362Z,51.95
2019-05-23T21:46:40.711Z,47.10
2019-05-23T21:49:42.957Z,49.08
2019-05-23T21:52:46.606Z,47.88
2019-05-23T21:55:49.941Z,44.80
2019-05-23T21:58:53.022Z,45.83
2019-05-23T22:02:05.271Z,48.50
2019-05-23T22:05:11.781Z,45.52
2019-05-23T22:08:14.541Z,43.65
2019-05-23T22:11:17.076Z,42.62
2019-05-23T22:14:18.362Z,42.00
2019-05-23T22:17:24.833Z,44.05
2019-05-23T22:20:26.288Z,39.45
2019-05-23T22:23:29.331Z,37.83
2019-05-23T22:26:31.872Z,34.80
2019-05-23T22:29:34.620Z,33.80
2019-05-23T22:32:36.929Z,34.53
2019-05-23T22:35:38.320Z,33.83
2019-05-23T22:38:40.233Z,34.35
2019-05-23T22:41:42.360Z,31.82
2019-05-23T22:44:44.888Z,31.97
2019-05-23T22:47:46.058Z,32.03
2019-05-23T22:50:47.309Z,30.50
2019-05-23T22:53:50.915Z,31.87
2019-05-23T22:56:53.302Z,29.77
2019-05-23T22:59:54.565Z,30.52
2019-05-23T23:02:56.026Z,30.82
2019-05-23T23:05:57.398Z,29.85
2019-05-23T23:08:58.633Z,29.02
2019-05-23T23:12:01.822Z,29.37
2019-05-23T23:15:07.361Z,29.27
2019-05-23T23:18:09.092Z,28.32
2019-05-23T23:21:10.327Z,28.52
2019-05-23T23:24:11.747Z,28.80
2019-05-23T23:27:12.977Z,27.98
2019-05-23T23:30:16.570Z,26.82
2019-05-23T23:33:18.937Z,27.52
2019-05-23T23:36:20.199Z,27.22
2019-05-23T23:39:21.765Z,27.75
2019-05-23T23:42:23.117Z,26.85
2019-05-23T23:45:43.539Z,27.17
2019-05-23T23:49:03.377Z,27.77
2019-05-23T23:52:24.477Z,27.13
2019-05-23T23:55:45.525Z,27.27
2019-05-23T23:58:48.973Z,26.57
